createdAt,value
2022-08-22T00:03:01.919Z,34.45199
2022-08-22T00:08:17.065Z,51.33985
2022-08-22T00:13:18.525Z,51.72989
2022-08-22T00:18:20.082Z,51.82743
2022-08-22T00:23:21.868Z,51.69333
2022-08-22T00:28:23.405Z,52.35423
2022-08-22T00:33:24.947Z,52.65725
2022-08-22T00:38:26.601Z,55.04118
2022-08-22T00:43:28.031Z,53.4902
2022-08-22T00:48:29.794Z,53.62642
2022-08-22T00:53:31.462Z,53.4222
2022-08-22T00:58:33.102Z,54.6273
2022-08-22T01:03:34.858Z,53.75286
2022-08-22T01:08:36.843Z,54.17176
2022-08-22T01:13:38.748Z,55.92535
2022-08-22T01:18:40.465Z,58.12357
2022-08-22T01:23:42.339Z,56.8465
2022-08-22T01:28:44.099Z,58.22482
2022-08-22T01:33:47.684Z,57.34964
2022-08-22T01:38:49.722Z,58.63219
2022-08-22T01:43:59.799Z,58.52293
2022-08-22T01:49:02.747Z,59.39366
2022-08-22T01:54:04.436Z,59.02762
2022-08-22T01:59:05.924Z,58.52531
2022-08-22T02:04:12.623Z,59.64708
2022-08-22T02:09:15.498Z,61.88785
2022-08-22T02:14:17.602Z,64.8387
2022-08-22T02:19:19.541Z,64.70569
2022-08-22T02:24:21.188Z,63.99182
2022-08-22T02:29:22.744Z,64.93948
2022-08-22T02:34:24.610Z,63.59725
2022-08-22T02:39:26.666Z,63.79716
2022-08-22T02:44:28.490Z,64.31536
2022-08-22T02:49:30.112Z,66.50293
2022-08-22T02:54:31.880Z,65.18369
2022-08-22T02:59:33.508Z,64.86506
2022-08-22T03:04:35.206Z,64.91353
2022-08-22T03:09:37.603Z,64.59879
2022-08-22T03:14:39.295Z,65.81387
2022-08-22T03:19:40.963Z,66.3745
2022-08-22T03:24:42.767Z,65.73286
2022-08-22T03:29:44.904Z,71.35172
2022-08-22T03:34:48.175Z,70.79326
2022-08-22T03:39:50.319Z,70.93828
2022-08-22T03:44:52.269Z,72.05571
2022-08-22T03:49:59.218Z,73.16804
2022-08-22T03:55:01.563Z,73.66925
2022-08-22T04:00:03.245Z,70.54579
2022-08-22T04:05:04.952Z,73.00832
2022-08-22T04:10:09.504Z,72.09261
2022-08-22T04:15:10.953Z,72.72619
2022-08-22T04:20:12.500Z,72.02697
2022-08-22T04:25:18.240Z,72.53657
2022-08-22T04:30:19.746Z,73.60007
2022-08-22T04:35:21.188Z,72.87765
2022-08-22T04:40:23.247Z,74.50613
2022-08-22T04:45:24.709Z,74.4897
2022-08-22T04:50:26.195Z,74.12095
2022-08-22T04:55:27.931Z,74.15355
2022-08-22T05:00:29.402Z,75.60013
2022-08-22T05:05:30.938Z,72.57687
2022-08-22T05:10:32.703Z,73.25603
2022-08-22T05:15:34.597Z,72.21906
2022-08-22T05:20:36.098Z,71.51751
2022-08-22T05:25:37.700Z,69.86154
2022-08-22T05:30:40.315Z,69.33083
2022-08-22T05:35:43.960Z,70.0363
2022-08-22T05:40:49.225Z,70.23987
2022-08-22T05:45:51.229Z,75.0958
2022-08-22T05:50:53.013Z,72.0084
2022-08-22T05:55:54.652Z,71.10523
2022-08-22T06:00:56.421Z,69.2649
2022-08-22T06:05:57.825Z,70.30721
2022-08-22T06:10:59.637Z,68.63336
2022-08-22T06:16:01.802Z,66.28376
2022-08-22T06:21:03.625Z,64.16464
2022-08-22T06:26:05.227Z,62.48624
2022-08-22T06:31:06.792Z,60.54871
2022-08-22T06:36:08.279Z,61.53147
2022-08-22T06:41:09.926Z,60.23661
2022-08-22T06:46:11.375Z,59.62104
2022-08-22T06:51:13.338Z,56.95407
2022-08-22T06:56:14.869Z,58.30088
2022-08-22T07:01:16.510Z,56.66609
2022-08-22T07:06:18.013Z,55.67687
2022-08-22T07:11:19.766Z,55.79309
2022-08-22T07:16:21.638Z,54.06756
2022-08-22T07:21:23.507Z,52.48974
2022-08-22T07:26:25.280Z,53.68831
2022-08-22T07:31:27.116Z,50.92143
2022-08-22T07:36:32.439Z,50.95521
2022-08-22T07:41:34.516Z,51.04138
2022-08-22T07:46:38.452Z,49.50141
2022-08-22T07:51:40.233Z,48.3224
2022-08-22T07:56:42.357Z,48.04542
2022-08-22T08:01:43.821Z,47.76861
2022-08-22T08:06:45.754Z,46.06757
2022-08-22T08:11:47.763Z,44.34641
2022-08-22T08:16:49.855Z,45.51485
2022-08-22T08:21:51.607Z,43.99005
2022-08-22T08:26:53.414Z,42.231
2022-08-22T08:31:55.300Z,42.58332
2022-08-22T08:36:57.384Z,42.8706
2022-08-22T08:42:00.275Z,39.26026
2022-08-22T08:47:02.150Z,39.7627
2022-08-22T08:52:04.248Z,39.49223
2022-08-22T08:57:06.330Z,39.33967
2022-08-22T09:02:08.108Z,38.11335
2022-08-22T09:07:15.598Z,36.7141
2022-08-22T09:12:17.984Z,35.16261
2022-08-22T09:17:21.173Z,34.70331
2022-08-22T09:22:23.110Z,34.02571
2022-08-22T09:27:25.273Z,35.05843
2022-08-22T09:32:27.029Z,34.62167
2022-08-22T09:37:28.921Z,34.18986
2022-08-22T09:42:31.935Z,31.79314
2022-08-22T09:47:33.838Z,30.25674
2022-08-22T09:52:35.896Z,30.05407
2022-08-22T09:57:37.834Z,29.6552
2022-08-22T10:02:43.693Z,29.90924
2022-08-22T10:07:45.545Z,29.08938
2022-08-22T10:12:53.402Z,27.5403
2022-08-22T10:17:54.824Z,27.98224
2022-08-22T10:22:57.992Z,26.89025
2022-08-22T10:27:59.966Z,25.85181
2022-08-22T10:33:02.615Z,26.02938
2022-08-22T10:38:04.399Z,26.54883
2022-08-22T10:43:06.273Z,26.21867
2022-08-22T10:48:10.870Z,25.46648
2022-08-22T10:53:12.775Z,25.88795
2022-08-22T10:58:14.418Z,26.44546
2022-08-22T11:03:21.308Z,26.71049
2022-08-22T11:08:25.547Z,24.26025
2022-08-22T11:13:30.168Z,25.60344
2022-08-22T11:18:31.802Z,23.62623
2022-08-22T11:23:33.835Z,22.36621
2022-08-22T11:28:35.953Z,24.0682
2022-08-22T11:33:47.117Z,22.83665
2022-08-22T11:38:49.578Z,22.41857
2022-08-22T11:43:52.926Z,21.35227
2022-08-22T11:48:54.872Z,21.08161
2022-08-22T11:53:56.877Z,22.70298
2022-08-22T11:58:59.193Z,22.56314
2022-08-22T12:04:03.392Z,20.83931
2022-08-22T12:09:05.473Z,21.02204
2022-08-22T12:14:07.438Z,20.73193
2022-08-22T12:19:09.453Z,20.66652
2022-08-22T12:24:20.838Z,21.42901
2022-08-22T12:29:33.391Z,20.39228
2022-08-22T12:34:35.347Z,21.20051
2022-08-22T12:39:37.600Z,21.65289
2022-08-22T12:44:43.356Z,21.25771
2022-08-22T12:49:50.003Z,20.31114
2022-08-22T12:54:54.239Z,21.13932
2022-08-22T12:59:55.734Z,21.24682
2022-08-22T13:05:00.064Z,21.93416
2022-08-22T13:10:03.196Z,20.9211
2022-08-22T13:15:05.863Z,20.63463
2022-08-22T13:20:12.335Z,20.42649
2022-08-22T13:25:13.891Z,19.92035
2022-08-22T13:30:15.576Z,19.84185
2022-08-22T13:35:17.054Z,19.66105
2022-08-22T13:40:25.796Z,19.76144
2022-08-22T13:45:27.896Z,20.64841
2022-08-22T13:50:35.785Z,20.05957
2022-08-22T13:55:54.763Z,19.54493
2022-08-22T14:00:58.238Z,18.81694
2022-08-22T14:06:26.593Z,20.59654
2022-08-22T14:11:37.255Z,19.83124
2022-08-22T14:16:40.218Z,20.23653
2022-08-22T14:21:41.934Z,21.275
2022-08-22T14:26:47.760Z,20.81546
2022-08-22T14:31:49.965Z,20.3889
2022-08-22T14:36:51.719Z,21.03586
2022-08-22T14:41:56.499Z,22.41454
2022-08-22T14:47:00.582Z,22.30194
2022-08-22T14:52:02.621Z,22.27195
2022-08-22T14:57:04.500Z,22.65156
2022-08-22T15:02:12.272Z,23.03279
2022-08-22T15:07:13.932Z,23.50287
2022-08-22T15:12:15.451Z,23.54307
2022-08-22T15:17:18.208Z,23.43338
2022-08-22T15:22:19.994Z,24.2144
2022-08-22T15:27:21.565Z,23.57529
2022-08-22T15:32:23.468Z,24.57008
2022-08-22T15:37:28.504Z,24.7704
2022-08-22T15:42:29.943Z,23.7904
2022-08-22T15:47:34.845Z,26.14892
2022-08-22T15:52:37.623Z,26.73751
2022-08-22T15:57:39.537Z,27.65865
2022-08-22T16:02:41.573Z,29.20155
2022-08-22T16:07:43.363Z,29.48477
2022-08-22T16:12:45.334Z,29.85729
2022-08-22T16:17:53.315Z,29.24371
2022-08-22T16:22:55.574Z,27.36854
2022-08-22T16:27:57.559Z,27.75755
2022-08-22T16:32:59.451Z,27.86939
2022-08-22T16:38:01.438Z,26.82251
2022-08-22T16:43:03.286Z,28.94549
2022-08-22T16:48:05.620Z,27.40695
2022-08-22T16:53:07.651Z,28.34457
2022-08-22T16:58:09.426Z,28.53078
2022-08-22T17:03:11.598Z,28.20558
2022-08-22T17:08:13.201Z,28.44412
2022-08-22T17:13:14.654Z,29.1099
2022-08-22T17:18:16.618Z,29.93141
2022-08-22T17:23:18.050Z,29.95605
2022-08-22T17:28:19.710Z,30.86674
2022-08-22T17:33:23.476Z,30.47445
2022-08-22T17:38:29.886Z,30.65004
2022-08-22T17:43:33.513Z,31.07247
2022-08-22T17:48:51.321Z,32.04898
2022-08-22T17:53:52.757Z,31.82917
2022-08-22T17:58:54.217Z,32.5106
2022-08-22T18:03:56.059Z,32.3129
2022-08-22T18:09:13.778Z,32.54934
2022-08-22T18:14:15.945Z,32.42453
2022-08-22T18:19:17.904Z,33.28134
2022-08-22T18:24:19.384Z,34.41983
2022-08-22T18:29:21.130Z,32.83664
2022-08-22T18:34:23.199Z,34.16971
2022-08-22T18:39:25.232Z,34.79564
2022-08-22T18:44:26.777Z,38.18691
2022-08-22T18:49:28.884Z,35.89512
2022-08-22T18:54:30.470Z,37.49141
2022-08-22T18:59:32.109Z,39.89531
2022-08-22T19:04:33.934Z,39.14394
2022-08-22T19:09:35.693Z,39.64977
2022-08-22T19:14:37.480Z,39.68242
2022-08-22T19:19:39.468Z,39.80106
2022-08-22T19:24:41.276Z,40.37373
2022-08-22T19:29:43.039Z,40.9933
2022-08-22T19:34:47.145Z,40.70686
2022-08-22T19:39:49.533Z,41.12624
2022-08-22T19:44:56.207Z,40.70322
2022-08-22T19:49:58.609Z,41.2438
2022-08-22T19:55:01.463Z,41.52985
2022-08-22T20:00:03.230Z,38.74241
2022-08-22T20:05:05.347Z,38.34837
2022-08-22T20:10:07.139Z,40.14339
2022-08-22T20:15:08.942Z,40.75788
2022-08-22T20:20:19.081Z,39.97447
2022-08-22T20:25:42.408Z,40.5085
2022-08-22T20:30:45.032Z,40.58962
2022-08-22T20:35:46.701Z,38.70008
2022-08-22T20:40:56.554Z,39.51844
2022-08-22T20:45:59.579Z,39.1303
2022-08-22T20:51:02.183Z,39.32706
2022-08-22T20:56:03.952Z,40.21268
2022-08-22T21:01:05.740Z,39.35001
2022-08-22T21:06:07.600Z,39.62618
2022-08-22T21:11:09.703Z,39.77295
2022-08-22T21:16:11.677Z,39.77953
2022-08-22T21:21:17.287Z,41.91818
2022-08-22T21:26:19.683Z,40.54595
2022-08-22T21:31:21.363Z,38.20815
2022-08-22T21:36:23.296Z,38.11653
2022-08-22T21:41:24.906Z,37.22946
2022-08-22T21:46:26.857Z,38.45891
2022-08-22T21:51:28.837Z,38.8414
2022-08-22T21:56:30.510Z,40.26117
2022-08-22T22:01:32.192Z,40.06872
2022-08-22T22:06:34.099Z,41.55914
2022-08-22T22:11:35.776Z,42.8393
2022-08-22T22:16:37.555Z,43.56735
2022-08-22T22:21:39.473Z,44.23443
2022-08-22T22:26:41.480Z,46.30293
2022-08-22T22:31:43.144Z,46.41866
2022-08-22T22:36:45.005Z,45.94554
2022-08-22T22:41:46.798Z,48.05149
2022-08-22T22:46:48.583Z,47.25785
2022-08-22T22:51:50.693Z,48.45519
2022-08-22T22:56:52.432Z,49.24638
2022-08-22T23:01:54.300Z,51.21543
2022-08-22T23:06:56.069Z,52.57633
2022-08-22T23:11:57.846Z,54.92576
2022-08-22T23:16:59.739Z,54.6506
2022-08-22T23:22:01.340Z,54.41761
2022-08-22T23:27:03.964Z,54.55746
2022-08-22T23:32:05.710Z,55.77411
2022-08-22T23:37:07.751Z,56.35564
2022-08-22T23:42:09.517Z,55.96153
2022-08-22T23:47:11.363Z,55.52021
2022-08-22T23:52:13.462Z,56.03775
2022-08-22T23:57:15.337Z,55.19169
